sensor_id;sensor_type;location;lat;lon;timestamp;P1;durP1;ratioP1;P2;durP2;ratioP2
71083;SDS011;58741;52.672;13.548;2023-04-29T00:00:29;2.70;;;1.63;;
71083;SDS011;58741;52.672;13.548;2023-04-29T00:02:55;2.92;;;1.50;;
71083;SDS011;58741;52.672;13.548;2023-04-29T00:05:34;2.17;;;1.35;;
71083;SDS011;58741;52.672;13.548;2023-04-29T00:07:59;2.10;;;1.40;;
71083;SDS011;58741;52.672;13.548;2023-04-29T00:10:25;5.75;;;1.35;;
71083;SDS011;58741;52.672;13.548;2023-04-29T00:12:51;3.50;;;1.88;;
71083;SDS011;58741;52.672;13.548;2023-04-29T00:15:16;2.60;;;1.50;;
71083;SDS011;58741;52.672;13.548;2023-04-29T00:17:42;2.75;;;1.50;;
71083;SDS011;58741;52.672;13.548;2023-04-29T00:20:09;2.28;;;1.60;;
71083;SDS011;58741;52.672;13.548;2023-04-29T00:22:36;2.67;;;1.23;;
71083;SDS011;58741;52.672;13.548;2023-04-29T00:25:02;2.42;;;1.10;;
71083;SDS011;58741;52.672;13.548;2023-04-29T00:27:29;2.70;;;1.35;;
71083;SDS011;58741;52.672;13.548;2023-04-29T00:29:55;2.45;;;1.58;;
71083;SDS011;58741;52.672;13.548;2023-04-29T00:32:21;0.88;;;0.82;;
71083;SDS011;58741;52.672;13.548;2023-04-29T00:34:47;8.48;;;1.77;;
71083;SDS011;58741;52.672;13.548;2023-04-29T00:37:12;0.82;;;0.82;;
71083;SDS011;58741;52.672;13.548;2023-04-29T00:39:38;1.67;;;1.25;;
71083;SDS011;58741;52.672;13.548;2023-04-29T00:42:03;1.33;;;1.23;;
71083;SDS011;58741;52.672;13.548;2023-04-29T00:44:29;1.98;;;1.27;;
71083;SDS011;58741;52.672;13.548;2023-04-29T00:46:55;1.48;;;1.38;;
71083;SDS011;58741;52.672;13.548;2023-04-29T00:49:21;1.50;;;1.40;;
71083;SDS011;58741;52.672;13.548;2023-04-29T00:51:46;2.55;;;1.35;;
71083;SDS011;58741;52.672;13.548;2023-04-29T00:54:13;3.20;;;1.98;;
71083;SDS011;58741;52.672;13.548;2023-04-29T00:56:39;2.35;;;1.40;;
71083;SDS011;58741;52.672;13.548;2023-04-29T00:59:09;2.92;;;1.02;;
71083;SDS011;58741;52.672;13.548;2023-04-29T01:01:37;3.05;;;1.55;;
71083;SDS011;58741;52.672;13.548;2023-04-29T01:04:03;3.20;;;1.60;;
71083;SDS011;58741;52.672;13.548;2023-04-29T01:06:51;4.25;;;1.63;;
71083;SDS011;58741;52.672;13.548;2023-04-29T01:15:18;2.53;;;1.63;;
71083;SDS011;58741;52.672;13.548;2023-04-29T01:17:50;4.05;;;1.67;;
71083;SDS011;58741;52.672;13.548;2023-04-29T01:20:26;2.17;;;1.83;;
71083;SDS011;58741;52.672;13.548;2023-04-29T01:22:52;2.83;;;1.55;;
71083;SDS011;58741;52.672;13.548;2023-04-29T01:25:18;2.05;;;1.52;;
71083;SDS011;58741;52.672;13.548;2023-04-29T01:28:28;2.47;;;1.60;;
71083;SDS011;58741;52.672;13.548;2023-04-29T01:31:01;2.28;;;1.70;;
71083;SDS011;58741;52.672;13.548;2023-04-29T01:41:42;2.40;;;1.90;;
71083;SDS011;58741;52.672;13.548;2023-04-29T01:44:23;1.85;;;1.40;;
71083;SDS011;58741;52.672;13.548;2023-04-29T01:46:53;1.85;;;1.55;;
71083;SDS011;58741;52.672;13.548;2023-04-29T01:49:26;2.22;;;1.50;;
71083;SDS011;58741;52.672;13.548;2023-04-29T01:51:53;3.38;;;1.63;;
71083;SDS011;58741;52.672;13.548;2023-04-29T01:54:20;1.30;;;1.20;;
71083;SDS011;58741;52.672;13.548;2023-04-29T01:56:46;8.10;;;1.50;;
71083;SDS011;58741;52.672;13.548;2023-04-29T01:59:26;1.80;;;1.40;;
71083;SDS011;58741;52.672;13.548;2023-04-29T02:02:15;1.98;;;1.60;;
71083;SDS011;58741;52.672;13.548;2023-04-29T02:04:50;2.40;;;1.70;;
71083;SDS011;58741;52.672;13.548;2023-04-29T02:07:16;3.78;;;2.30;;
71083;SDS011;58741;52.672;13.548;2023-04-29T02:09:43;1.15;;;1.05;;
71083;SDS011;58741;52.672;13.548;2023-04-29T02:12:10;2.25;;;1.83;;
71083;SDS011;58741;52.672;13.548;2023-04-29T02:14:36;2.70;;;1.65;;
71083;SDS011;58741;52.672;13.548;2023-04-29T02:17:01;2.05;;;1.40;;
71083;SDS011;58741;52.672;13.548;2023-04-29T02:19:27;2.92;;;1.80;;
71083;SDS011;58741;52.672;13.548;2023-04-29T02:21:54;5.15;;;1.75;;
71083;SDS011;58741;52.672;13.548;2023-04-29T02:24:20;1.80;;;1.35;;
71083;SDS011;58741;52.672;13.548;2023-04-29T02:26:46;3.72;;;1.63;;
71083;SDS011;58741;52.672;13.548;2023-04-29T02:29:12;1.92;;;1.35;;
71083;SDS011;58741;52.672;13.548;2023-04-29T02:31:37;2.72;;;1.50;;
71083;SDS011;58741;52.672;13.548;2023-04-29T02:34:03;2.15;;;1.65;;
71083;SDS011;58741;52.672;13.548;2023-04-29T02:36:29;4.13;;;1.13;;
71083;SDS011;58741;52.672;13.548;2023-04-29T02:38:55;2.65;;;1.83;;
71083;SDS011;58741;52.672;13.548;2023-04-29T02:41:21;2.55;;;1.70;;
71083;SDS011;58741;52.672;13.548;2023-04-29T02:43:47;5.75;;;2.33;;
71083;SDS011;58741;52.672;13.548;2023-04-29T02:46:13;2.67;;;1.83;;
71083;SDS011;58741;52.672;13.548;2023-04-29T02:48:39;3.20;;;2.00;;
71083;SDS011;58741;52.672;13.548;2023-04-29T02:51:05;6.82;;;1.77;;
71083;SDS011;58741;52.672;13.548;2023-04-29T02:53:31;4.88;;;1.55;;
71083;SDS011;58741;52.672;13.548;2023-04-29T02:55:57;4.15;;;1.65;;
71083;SDS011;58741;52.672;13.548;2023-04-29T02:58:22;1.02;;;0.95;;
71083;SDS011;58741;52.672;13.548;2023-04-29T03:00:48;3.17;;;2.10;;
71083;SDS011;58741;52.672;13.548;2023-04-29T03:03:14;2.38;;;1.55;;
71083;SDS011;58741;52.672;13.548;2023-04-29T03:05:40;2.08;;;1.50;;
71083;SDS011;58741;52.672;13.548;2023-04-29T03:08:06;1.27;;;1.17;;
71083;SDS011;58741;52.672;13.548;2023-04-29T03:10:32;2.60;;;1.52;;
71083;SDS011;58741;52.672;13.548;2023-04-29T03:12:58;2.13;;;1.60;;
71083;SDS011;58741;52.672;13.548;2023-04-29T03:15:23;1.42;;;1.20;;
71083;SDS011;58741;52.672;13.548;2023-04-29T03:17:49;6.63;;;1.58;;
71083;SDS011;58741;52.672;13.548;2023-04-29T03:20:15;3.00;;;1.50;;
71083;SDS011;58741;52.672;13.548;2023-04-29T03:22:41;2.90;;;1.75;;
71083;SDS011;58741;52.672;13.548;2023-04-29T03:25:07;2.53;;;1.60;;
71083;SDS011;58741;52.672;13.548;2023-04-29T03:27:35;2.25;;;1.80;;
71083;SDS011;58741;52.672;13.548;2023-04-29T03:30:01;5.72;;;2.15;;
71083;SDS011;58741;52.672;13.548;2023-04-29T03:32:27;3.35;;;2.05;;
71083;SDS011;58741;52.672;13.548;2023-04-29T03:34:52;1.55;;;1.40;;
71083;SDS011;58741;52.672;13.548;2023-04-29T03:37:39;4.55;;;2.08;;
71083;SDS011;58741;52.672;13.548;2023-04-29T03:40:23;2.42;;;1.63;;
71083;SDS011;58741;52.672;13.548;2023-04-29T03:42:49;1.38;;;1.27;;
71083;SDS011;58741;52.672;13.548;2023-04-29T03:45:15;5.30;;;1.92;;
71083;SDS011;58741;52.672;13.548;2023-04-29T03:47:42;3.05;;;1.95;;
71083;SDS011;58741;52.672;13.548;2023-04-29T03:50:07;2.58;;;1.80;;
71083;SDS011;58741;52.672;13.548;2023-04-29T03:52:33;2.83;;;1.80;;
71083;SDS011;58741;52.672;13.548;2023-04-29T03:55:08;2.63;;;1.70;;
71083;SDS011;58741;52.672;13.548;2023-04-29T03:57:34;2.83;;;1.70;;
71083;SDS011;58741;52.672;13.548;2023-04-29T03:59:59;3.22;;;2.50;;
71083;SDS011;58741;52.672;13.548;2023-04-29T04:02:25;3.63;;;1.23;;
71083;SDS011;58741;52.672;13.548;2023-04-29T04:04:51;2.33;;;1.60;;
71083;SDS011;58741;52.672;13.548;2023-04-29T04:07:19;3.28;;;2.03;;
71083;SDS011;58741;52.672;13.548;2023-04-29T04:10:10;2.25;;;1.20;;
71083;SDS011;58741;52.672;13.548;2023-04-29T04:12:36;3.20;;;1.52;;
71083;SDS011;58741;52.672;13.548;2023-04-29T04:15:02;5.32;;;1.75;;
71083;SDS011;58741;52.672;13.548;2023-04-29T04:17:28;3.03;;;2.05;;
71083;SDS011;58741;52.672;13.548;2023-04-29T04:19:54;3.90;;;2.00;;
71083;SDS011;58741;52.672;13.548;2023-04-29T04:22:20;2.70;;;2.10;;
71083;SDS011;58741;52.672;13.548;2023-04-29T04:25:01;3.45;;;2.28;;
71083;SDS011;58741;52.672;13.548;2023-04-29T04:27:27;2.65;;;2.17;;
71083;SDS011;58741;52.672;13.548;2023-04-29T04:29:54;3.55;;;2.28;;
71083;SDS011;58741;52.672;13.548;2023-04-29T04:32:25;2.90;;;2.20;;
71083;SDS011;58741;52.672;13.548;2023-04-29T04:34:51;2.30;;;1.98;;
71083;SDS011;58741;52.672;13.548;2023-04-29T04:37:16;2.13;;;1.90;;
71083;SDS011;58741;52.672;13.548;2023-04-29T04:39:48;5.15;;;2.00;;
71083;SDS011;58741;52.672;13.548;2023-04-29T04:42:14;2.47;;;2.15;;
71083;SDS011;58741;52.672;13.548;2023-04-29T04:44:40;2.63;;;2.00;;
71083;SDS011;58741;52.672;13.548;2023-04-29T04:47:09;2.10;;;1.92;;
71083;SDS011;58741;52.672;13.548;2023-04-29T04:49:44;3.30;;;2.20;;
71083;SDS011;58741;52.672;13.548;2023-04-29T04:52:10;2.60;;;1.80;;
71083;SDS011;58741;52.672;13.548;2023-04-29T04:54:36;4.00;;;2.17;;
71083;SDS011;58741;52.672;13.548;2023-04-29T04:57:22;3.88;;;2.50;;
71083;SDS011;58741;52.672;13.548;2023-04-29T04:59:48;3.80;;;1.90;;
71083;SDS011;58741;52.672;13.548;2023-04-29T05:02:13;1.85;;;1.73;;
71083;SDS011;58741;52.672;13.548;2023-04-29T05:04:39;2.42;;;1.75;;
71083;SDS011;58741;52.672;13.548;2023-04-29T05:07:05;3.60;;;2.35;;
71083;SDS011;58741;52.672;13.548;2023-04-29T05:09:46;3.85;;;2.50;;
71083;SDS011;58741;52.672;13.548;2023-04-29T05:12:11;4.18;;;2.72;;
71083;SDS011;58741;52.672;13.548;2023-04-29T05:14:37;6.25;;;2.75;;
71083;SDS011;58741;52.672;13.548;2023-04-29T05:17:03;2.97;;;2.30;;
71083;SDS011;58741;52.672;13.548;2023-04-29T05:19:28;3.25;;;2.00;;
71083;SDS011;58741;52.672;13.548;2023-04-29T05:21:54;4.40;;;2.00;;
71083;SDS011;58741;52.672;13.548;2023-04-29T05:24:20;4.25;;;2.33;;
71083;SDS011;58741;52.672;13.548;2023-04-29T05:26:46;3.83;;;2.40;;
71083;SDS011;58741;52.672;13.548;2023-04-29T05:29:11;3.53;;;2.47;;
71083;SDS011;58741;52.672;13.548;2023-04-29T05:34:13;3.53;;;2.43;;
71083;SDS011;58741;52.672;13.548;2023-04-29T05:36:39;5.88;;;3.28;;
71083;SDS011;58741;52.672;13.548;2023-04-29T05:39:05;6.45;;;3.03;;
71083;SDS011;58741;52.672;13.548;2023-04-29T05:41:31;6.55;;;2.63;;
71083;SDS011;58741;52.672;13.548;2023-04-29T05:44:14;4.82;;;2.95;;
71083;SDS011;58741;52.672;13.548;2023-04-29T05:46:40;7.35;;;3.97;;
71083;SDS011;58741;52.672;13.548;2023-04-29T05:49:05;4.32;;;3.15;;
71083;SDS011;58741;52.672;13.548;2023-04-29T05:51:31;7.40;;;3.97;;
71083;SDS011;58741;52.672;13.548;2023-04-29T05:53:57;8.98;;;4.05;;
71083;SDS011;58741;52.672;13.548;2023-04-29T05:56:24;6.30;;;3.38;;
71083;SDS011;58741;52.672;13.548;2023-04-29T05:58:50;7.13;;;2.88;;
71083;SDS011;58741;52.672;13.548;2023-04-29T06:01:16;5.40;;;3.67;;
71083;SDS011;58741;52.672;13.548;2023-04-29T06:03:43;7.47;;;3.40;;
71083;SDS011;58741;52.672;13.548;2023-04-29T06:06:35;7.78;;;3.97;;
71083;SDS011;58741;52.672;13.548;2023-04-29T06:09:16;6.38;;;3.80;;
71083;SDS011;58741;52.672;13.548;2023-04-29T06:11:44;6.55;;;4.15;;
71083;SDS011;58741;52.672;13.548;2023-04-29T06:14:10;5.57;;;3.90;;
71083;SDS011;58741;52.672;13.548;2023-04-29T06:16:35;6.63;;;3.58;;
71083;SDS011;58741;52.672;13.548;2023-04-29T06:19:01;12.02;;;5.10;;
71083;SDS011;58741;52.672;13.548;2023-04-29T06:21:27;8.25;;;4.35;;
71083;SDS011;58741;52.672;13.548;2023-04-29T06:23:53;7.55;;;4.32;;
71083;SDS011;58741;52.672;13.548;2023-04-29T06:26:19;11.52;;;6.53;;
71083;SDS011;58741;52.672;13.548;2023-04-29T06:28:46;9.65;;;5.88;;
71083;SDS011;58741;52.672;13.548;2023-04-29T06:31:11;17.15;;;6.97;;
71083;SDS011;58741;52.672;13.548;2023-04-29T06:33:37;13.70;;;6.72;;
71083;SDS011;58741;52.672;13.548;2023-04-29T06:36:04;13.98;;;6.43;;
71083;SDS011;58741;52.672;13.548;2023-04-29T06:38:45;10.77;;;6.43;;
71083;SDS011;58741;52.672;13.548;2023-04-29T06:41:30;9.40;;;5.60;;
71083;SDS011;58741;52.672;13.548;2023-04-29T06:44:14;14.98;;;6.13;;
71083;SDS011;58741;52.672;13.548;2023-04-29T06:46:51;8.70;;;4.70;;
71083;SDS011;58741;52.672;13.548;2023-04-29T06:49:52;7.47;;;3.83;;
71083;SDS011;58741;52.672;13.548;2023-04-29T06:52:20;5.15;;;3.80;;
71083;SDS011;58741;52.672;13.548;2023-04-29T06:54:46;8.30;;;3.80;;
71083;SDS011;58741;52.672;13.548;2023-04-29T06:57:12;5.70;;;3.58;;
71083;SDS011;58741;52.672;13.548;2023-04-29T06:59:37;5.88;;;3.30;;
71083;SDS011;58741;52.672;13.548;2023-04-29T07:02:03;6.68;;;3.25;;
71083;SDS011;58741;52.672;13.548;2023-04-29T07:04:29;5.50;;;3.05;;
71083;SDS011;58741;52.672;13.548;2023-04-29T07:06:54;4.03;;;2.67;;
71083;SDS011;58741;52.672;13.548;2023-04-29T07:09:20;4.65;;;3.28;;
71083;SDS011;58741;52.672;13.548;2023-04-29T07:11:47;2.85;;;2.55;;
71083;SDS011;58741;52.672;13.548;2023-04-29T07:14:13;5.28;;;3.08;;
71083;SDS011;58741;52.672;13.548;2023-04-29T07:16:39;5.38;;;3.03;;
71083;SDS011;58741;52.672;13.548;2023-04-29T07:19:08;7.15;;;2.88;;
71083;SDS011;58741;52.672;13.548;2023-04-29T07:21:34;3.33;;;1.73;;
71083;SDS011;58741;52.672;13.548;2023-04-29T07:24:00;3.63;;;2.15;;
71083;SDS011;58741;52.672;13.548;2023-04-29T07:26:27;3.70;;;1.80;;
71083;SDS011;58741;52.672;13.548;2023-04-29T07:28:52;4.55;;;2.35;;
71083;SDS011;58741;52.672;13.548;2023-04-29T07:31:18;2.55;;;2.00;;
71083;SDS011;58741;52.672;13.548;2023-04-29T07:33:45;3.58;;;2.00;;
71083;SDS011;58741;52.672;13.548;2023-04-29T07:36:11;2.45;;;1.48;;
71083;SDS011;58741;52.672;13.548;2023-04-29T07:38:37;2.42;;;1.50;;
71083;SDS011;58741;52.672;13.548;2023-04-29T07:41:02;2.17;;;1.50;;
71083;SDS011;58741;52.672;13.548;2023-04-29T07:43:28;3.30;;;1.95;;
71083;SDS011;58741;52.672;13.548;2023-04-29T07:45:54;2.63;;;1.85;;
71083;SDS011;58741;52.672;13.548;2023-04-29T07:48:20;2.33;;;1.52;;
71083;SDS011;58741;52.672;13.548;2023-04-29T07:50:46;2.25;;;1.75;;
71083;SDS011;58741;52.672;13.548;2023-04-29T07:53:12;2.05;;;1.50;;
71083;SDS011;58741;52.672;13.548;2023-04-29T07:55:37;1.63;;;1.20;;
71083;SDS011;58741;52.672;13.548;2023-04-29T07:58:03;1.33;;;1.20;;
71083;SDS011;58741;52.672;13.548;2023-04-29T08:00:29;1.80;;;1.35;;
71083;SDS011;58741;52.672;13.548;2023-04-29T08:02:55;2.53;;;1.20;;
71083;SDS011;58741;52.672;13.548;2023-04-29T08:05:22;1.45;;;1.00;;
71083;SDS011;58741;52.672;13.548;2023-04-29T08:07:48;1.75;;;1.27;;
71083;SDS011;58741;52.672;13.548;2023-04-29T08:10:15;2.42;;;1.73;;
71083;SDS011;58741;52.672;13.548;2023-04-29T08:12:44;1.77;;;1.67;;
71083;SDS011;58741;52.672;13.548;2023-04-29T08:15:10;3.25;;;2.10;;
71083;SDS011;58741;52.672;13.548;2023-04-29T08:17:35;3.00;;;1.88;;
71083;SDS011;58741;52.672;13.548;2023-04-29T08:20:01;3.45;;;1.92;;
71083;SDS011;58741;52.672;13.548;2023-04-29T08:22:27;3.17;;;2.10;;
71083;SDS011;58741;52.672;13.548;2023-04-29T08:24:52;3.10;;;2.20;;
71083;SDS011;58741;52.672;13.548;2023-04-29T08:27:18;5.82;;;2.58;;
71083;SDS011;58741;52.672;13.548;2023-04-29T08:29:45;2.88;;;1.92;;
71083;SDS011;58741;52.672;13.548;2023-04-29T08:32:11;3.25;;;2.30;;
71083;SDS011;58741;52.672;13.548;2023-04-29T08:34:36;5.05;;;2.80;;
71083;SDS011;58741;52.672;13.548;2023-04-29T08:37:02;2.53;;;2.17;;
71083;SDS011;58741;52.672;13.548;2023-04-29T08:39:28;2.85;;;2.35;;
71083;SDS011;58741;52.672;13.548;2023-04-29T08:41:57;3.47;;;2.45;;
71083;SDS011;58741;52.672;13.548;2023-04-29T08:44:24;3.05;;;2.00;;
71083;SDS011;58741;52.672;13.548;2023-04-29T08:46:50;5.40;;;2.60;;
71083;SDS011;58741;52.672;13.548;2023-04-29T08:49:16;4.28;;;2.80;;
71083;SDS011;58741;52.672;13.548;2023-04-29T08:51:42;5.78;;;3.13;;
71083;SDS011;58741;52.672;13.548;2023-04-29T08:54:08;3.92;;;2.75;;
71083;SDS011;58741;52.672;13.548;2023-04-29T08:56:34;3.63;;;2.42;;
71083;SDS011;58741;52.672;13.548;2023-04-29T08:59:01;5.28;;;3.25;;
71083;SDS011;58741;52.672;13.548;2023-04-29T09:01:28;3.35;;;2.60;;
71083;SDS011;58741;52.672;13.548;2023-04-29T09:06:33;3.42;;;2.72;;
71083;SDS011;58741;52.672;13.548;2023-04-29T09:08:58;5.97;;;3.85;;
71083;SDS011;58741;52.672;13.548;2023-04-29T09:11:26;6.55;;;4.15;;
71083;SDS011;58741;52.672;13.548;2023-04-29T09:13:57;7.18;;;3.95;;
71083;SDS011;58741;52.672;13.548;2023-04-29T09:16:25;8.68;;;4.10;;
71083;SDS011;58741;52.672;13.548;2023-04-29T09:18:51;7.80;;;4.53;;
71083;SDS011;58741;52.672;13.548;2023-04-29T09:23:46;11.52;;;4.35;;
71083;SDS011;58741;52.672;13.548;2023-04-29T09:26:13;8.45;;;4.95;;
71083;SDS011;58741;52.672;13.548;2023-04-29T09:28:39;9.15;;;5.70;;
71083;SDS011;58741;52.672;13.548;2023-04-29T09:31:07;12.85;;;6.35;;
71083;SDS011;58741;52.672;13.548;2023-04-29T09:33:53;8.25;;;5.47;;
71083;SDS011;58741;52.672;13.548;2023-04-29T09:39:07;8.38;;;5.05;;
71083;SDS011;58741;52.672;13.548;2023-04-29T09:44:17;10.05;;;4.93;;
71083;SDS011;58741;52.672;13.548;2023-04-29T09:46:53;12.15;;;5.88;;
71083;SDS011;58741;52.672;13.548;2023-04-29T09:49:22;12.25;;;5.40;;
71083;SDS011;58741;52.672;13.548;2023-04-29T09:51:59;11.02;;;5.03;;
71083;SDS011;58741;52.672;13.548;2023-04-29T09:54:27;14.50;;;6.28;;
71083;SDS011;58741;52.672;13.548;2023-04-29T09:56:55;10.43;;;4.82;;
71083;SDS011;58741;52.672;13.548;2023-04-29T09:59:21;7.55;;;4.25;;
71083;SDS011;58741;52.672;13.548;2023-04-29T10:01:49;14.68;;;6.03;;
71083;SDS011;58741;52.672;13.548;2023-04-29T10:04:16;7.97;;;5.15;;
71083;SDS011;58741;52.672;13.548;2023-04-29T10:06:50;10.57;;;6.03;;
71083;SDS011;58741;52.672;13.548;2023-04-29T10:09:18;12.07;;;6.07;;
71083;SDS011;58741;52.672;13.548;2023-04-29T10:11:45;7.97;;;5.82;;
71083;SDS011;58741;52.672;13.548;2023-04-29T10:14:15;7.18;;;5.13;;
71083;SDS011;58741;52.672;13.548;2023-04-29T10:16:46;9.77;;;5.63;;
71083;SDS011;58741;52.672;13.548;2023-04-29T10:19:27;8.02;;;4.75;;
71083;SDS011;58741;52.672;13.548;2023-04-29T10:22:04;6.72;;;4.72;;
71083;SDS011;58741;52.672;13.548;2023-04-29T10:24:34;11.73;;;4.35;;
71083;SDS011;58741;52.672;13.548;2023-04-29T10:27:02;9.40;;;5.47;;
71083;SDS011;58741;52.672;13.548;2023-04-29T10:29:36;7.55;;;4.85;;
71083;SDS011;58741;52.672;13.548;2023-04-29T10:32:05;7.00;;;5.25;;
71083;SDS011;58741;52.672;13.548;2023-04-29T10:34:33;7.22;;;5.10;;
71083;SDS011;58741;52.672;13.548;2023-04-29T10:37:02;7.88;;;5.20;;
71083;SDS011;58741;52.672;13.548;2023-04-29T10:39:31;10.02;;;5.68;;
71083;SDS011;58741;52.672;13.548;2023-04-29T10:42:06;9.15;;;4.80;;
71083;SDS011;58741;52.672;13.548;2023-04-29T10:53:14;8.00;;;4.65;;
71083;SDS011;58741;52.672;13.548;2023-04-29T10:55:40;6.43;;;4.40;;
71083;SDS011;58741;52.672;13.548;2023-04-29T10:58:32;8.32;;;4.25;;
71083;SDS011;58741;52.672;13.548;2023-04-29T11:01:04;6.55;;;4.15;;
71083;SDS011;58741;52.672;13.548;2023-04-29T11:06:09;6.93;;;3.67;;
71083;SDS011;58741;52.672;13.548;2023-04-29T11:08:36;7.00;;;4.32;;
71083;SDS011;58741;52.672;13.548;2023-04-29T11:11:04;6.38;;;4.18;;
71083;SDS011;58741;52.672;13.548;2023-04-29T11:13:30;5.72;;;3.53;;
71083;SDS011;58741;52.672;13.548;2023-04-29T11:16:05;10.07;;;5.03;;
71083;SDS011;58741;52.672;13.548;2023-04-29T11:18:32;6.47;;;4.13;;
71083;SDS011;58741;52.672;13.548;2023-04-29T11:23:32;5.18;;;4.25;;
71083;SDS011;58741;52.672;13.548;2023-04-29T11:26:02;6.15;;;3.97;;
71083;SDS011;58741;52.672;13.548;2023-04-29T11:28:29;5.38;;;3.45;;
71083;SDS011;58741;52.672;13.548;2023-04-29T11:30:55;6.95;;;4.18;;
71083;SDS011;58741;52.672;13.548;2023-04-29T11:33:22;4.35;;;3.15;;
71083;SDS011;58741;52.672;13.548;2023-04-29T11:35:48;6.22;;;3.38;;
71083;SDS011;58741;52.672;13.548;2023-04-29T11:38:15;4.82;;;3.13;;
71083;SDS011;58741;52.672;13.548;2023-04-29T11:40:41;3.63;;;2.83;;
71083;SDS011;58741;52.672;13.548;2023-04-29T11:43:15;8.68;;;3.58;;
71083;SDS011;58741;52.672;13.548;2023-04-29T11:45:47;3.38;;;2.83;;
71083;SDS011;58741;52.672;13.548;2023-04-29T11:48:19;2.97;;;2.33;;
71083;SDS011;58741;52.672;13.548;2023-04-29T11:50:46;4.85;;;3.10;;
71083;SDS011;58741;52.672;13.548;2023-04-29T11:53:12;5.15;;;3.50;;
71083;SDS011;58741;52.672;13.548;2023-04-29T11:55:40;7.18;;;3.40;;
71083;SDS011;58741;52.672;13.548;2023-04-29T11:58:10;3.80;;;2.88;;
71083;SDS011;58741;52.672;13.548;2023-04-29T12:00:35;3.53;;;2.72;;
71083;SDS011;58741;52.672;13.548;2023-04-29T12:03:06;4.38;;;2.72;;
71083;SDS011;58741;52.672;13.548;2023-04-29T12:06:00;4.60;;;2.63;;
71083;SDS011;58741;52.672;13.548;2023-04-29T12:08:27;3.95;;;2.67;;
71083;SDS011;58741;52.672;13.548;2023-04-29T12:10:55;6.40;;;2.75;;
71083;SDS011;58741;52.672;13.548;2023-04-29T12:13:22;6.47;;;3.17;;
71083;SDS011;58741;52.672;13.548;2023-04-29T12:15:51;7.93;;;3.38;;
71083;SDS011;58741;52.672;13.548;2023-04-29T12:18:17;5.53;;;3.05;;
71083;SDS011;58741;52.672;13.548;2023-04-29T12:20:46;5.38;;;3.00;;
71083;SDS011;58741;52.672;13.548;2023-04-29T12:25:39;8.52;;;3.72;;
71083;SDS011;58741;52.672;13.548;2023-04-29T12:28:11;3.20;;;2.60;;
71083;SDS011;58741;52.672;13.548;2023-04-29T12:30:37;4.47;;;2.58;;
71083;SDS011;58741;52.672;13.548;2023-04-29T12:33:02;8.05;;;2.70;;
71083;SDS011;58741;52.672;13.548;2023-04-29T12:35:28;6.25;;;2.40;;
71083;SDS011;58741;52.672;13.548;2023-04-29T12:37:56;3.30;;;2.25;;
71083;SDS011;58741;52.672;13.548;2023-04-29T12:40:22;5.13;;;2.58;;
71083;SDS011;58741;52.672;13.548;2023-04-29T12:42:48;5.75;;;3.15;;
71083;SDS011;58741;52.672;13.548;2023-04-29T12:45:27;3.65;;;2.40;;
71083;SDS011;58741;52.672;13.548;2023-04-29T12:47:55;2.17;;;1.95;;
71083;SDS011;58741;52.672;13.548;2023-04-29T12:50:54;4.40;;;3.33;;
71083;SDS011;58741;52.672;13.548;2023-04-29T12:53:15;3.00;;;2.30;;
71083;SDS011;58741;52.672;13.548;2023-04-29T12:55:41;3.92;;;2.78;;
71083;SDS011;58741;52.672;13.548;2023-04-29T12:58:06;4.35;;;2.20;;
71083;SDS011;58741;52.672;13.548;2023-04-29T13:00:33;3.15;;;2.13;;
71083;SDS011;58741;52.672;13.548;2023-04-29T13:03:01;3.75;;;2.33;;
71083;SDS011;58741;52.672;13.548;2023-04-29T13:05:27;4.05;;;2.45;;
71083;SDS011;58741;52.672;13.548;2023-04-29T13:07:52;2.45;;;1.85;;
71083;SDS011;58741;52.672;13.548;2023-04-29T13:10:18;2.05;;;1.70;;
71083;SDS011;58741;52.672;13.548;2023-04-29T13:12:43;4.03;;;2.22;;
71083;SDS011;58741;52.672;13.548;2023-04-29T13:15:09;3.78;;;2.03;;
71083;SDS011;58741;52.672;13.548;2023-04-29T13:17:35;3.90;;;2.08;;
71083;SDS011;58741;52.672;13.548;2023-04-29T13:20:04;3.42;;;1.92;;
71083;SDS011;58741;52.672;13.548;2023-04-29T13:22:30;2.67;;;1.95;;
71083;SDS011;58741;52.672;13.548;2023-04-29T13:24:56;7.82;;;2.70;;
71083;SDS011;58741;52.672;13.548;2023-04-29T13:27:22;4.65;;;2.28;;
71083;SDS011;58741;52.672;13.548;2023-04-29T13:29:47;4.05;;;1.90;;
71083;SDS011;58741;52.672;13.548;2023-04-29T13:32:13;3.25;;;2.00;;
71083;SDS011;58741;52.672;13.548;2023-04-29T13:34:40;8.18;;;2.53;;
71083;SDS011;58741;52.672;13.548;2023-04-29T13:37:07;6.40;;;2.15;;
71083;SDS011;58741;52.672;13.548;2023-04-29T13:39:33;4.45;;;2.63;;
71083;SDS011;58741;52.672;13.548;2023-04-29T13:42:00;2.25;;;1.98;;
71083;SDS011;58741;52.672;13.548;2023-04-29T13:44:25;2.53;;;2.05;;
71083;SDS011;58741;52.672;13.548;2023-04-29T13:46:51;3.13;;;2.10;;
71083;SDS011;58741;52.672;13.548;2023-04-29T13:49:17;2.58;;;2.05;;
71083;SDS011;58741;52.672;13.548;2023-04-29T13:51:42;2.75;;;1.90;;
71083;SDS011;58741;52.672;13.548;2023-04-29T13:54:08;2.88;;;2.25;;
71083;SDS011;58741;52.672;13.548;2023-04-29T13:56:33;3.30;;;1.92;;
71083;SDS011;58741;52.672;13.548;2023-04-29T13:58:59;1.73;;;1.50;;
71083;SDS011;58741;52.672;13.548;2023-04-29T14:01:25;2.53;;;1.67;;
71083;SDS011;58741;52.672;13.548;2023-04-29T14:03:51;4.70;;;1.90;;
71083;SDS011;58741;52.672;13.548;2023-04-29T14:06:17;2.55;;;2.10;;
71083;SDS011;58741;52.672;13.548;2023-04-29T14:08:43;2.92;;;1.95;;
71083;SDS011;58741;52.672;13.548;2023-04-29T14:11:08;3.90;;;2.10;;
71083;SDS011;58741;52.672;13.548;2023-04-29T14:13:34;2.92;;;1.85;;
71083;SDS011;58741;52.672;13.548;2023-04-29T14:15:59;2.15;;;1.55;;
71083;SDS011;58741;52.672;13.548;2023-04-29T14:18:27;5.85;;;2.03;;
71083;SDS011;58741;52.672;13.548;2023-04-29T14:20:54;2.10;;;1.90;;
71083;SDS011;58741;52.672;13.548;2023-04-29T14:23:20;2.13;;;1.40;;
71083;SDS011;58741;52.672;13.548;2023-04-29T14:25:46;2.03;;;1.73;;
71083;SDS011;58741;52.672;13.548;2023-04-29T14:28:11;6.47;;;1.67;;
71083;SDS011;58741;52.672;13.548;2023-04-29T14:30:37;2.50;;;1.48;;
71083;SDS011;58741;52.672;13.548;2023-04-29T14:33:03;4.07;;;2.40;;
71083;SDS011;58741;52.672;13.548;2023-04-29T14:35:28;2.85;;;1.90;;
71083;SDS011;58741;52.672;13.548;2023-04-29T14:37:55;2.70;;;1.83;;
71083;SDS011;58741;52.672;13.548;2023-04-29T14:40:21;1.92;;;1.38;;
71083;SDS011;58741;52.672;13.548;2023-04-29T14:42:46;2.15;;;1.80;;
71083;SDS011;58741;52.672;13.548;2023-04-29T14:45:12;3.13;;;2.08;;
71083;SDS011;58741;52.672;13.548;2023-04-29T14:47:37;3.88;;;2.25;;
71083;SDS011;58741;52.672;13.548;2023-04-29T14:50:03;3.72;;;1.73;;
71083;SDS011;58741;52.672;13.548;2023-04-29T14:52:29;2.22;;;2.03;;
71083;SDS011;58741;52.672;13.548;2023-04-29T14:54:55;2.08;;;1.67;;
71083;SDS011;58741;52.672;13.548;2023-04-29T14:57:21;2.50;;;2.00;;
71083;SDS011;58741;52.672;13.548;2023-04-29T14:59:46;3.58;;;2.22;;
71083;SDS011;58741;52.672;13.548;2023-04-29T15:02:12;2.38;;;1.55;;
71083;SDS011;58741;52.672;13.548;2023-04-29T15:04:37;1.75;;;1.65;;
71083;SDS011;58741;52.672;13.548;2023-04-29T15:07:07;2.17;;;1.63;;
71083;SDS011;58741;52.672;13.548;2023-04-29T15:09:32;2.55;;;1.75;;
71083;SDS011;58741;52.672;13.548;2023-04-29T15:11:58;4.15;;;2.08;;
71083;SDS011;58741;52.672;13.548;2023-04-29T15:14:23;2.15;;;1.75;;
71083;SDS011;58741;52.672;13.548;2023-04-29T15:16:49;3.17;;;2.38;;
71083;SDS011;58741;52.672;13.548;2023-04-29T15:19:14;2.55;;;1.50;;
71083;SDS011;58741;52.672;13.548;2023-04-29T15:21:40;1.90;;;1.67;;